CPX31 Details

Departure: Tokyo-Narita International Airport (RJAA)
Arrival: Ted Stevens Anchorage International Airport (PANC)
Route: CUPID Y808 ALLEN Y812 SCORE R591 EHM R591 HAMND NEELL6


Current Weather Information
RJAA 200900Z 15006KT CAVOK 13/08 Q1017 NOSIG
PANC 200853Z 01010G19KT 10SM SCT060 BKN070 OVC085 01/M05 A2986 RMK AO2 SLP113 T00111050 400440006 56022